Terminal Aerodrome Forecast
Issued by NWS

Home | Current Version | Previous Version | Text Only | Print | Product List | Glossary On
Versions: 1 2 3 4 5 6 7 8 9 10 11 12 13 14 15 16 17 18 19 20 21 22 23 24 25 26
877
FTAK31 PANC 110535
TAFAGK
TAF
PAGK 110535Z 1106/1206 VRB05KT P6SM VCSH SCT040 OVC070
      TEMPO 1108/1112 5SM -SHSN BKN020
     FM111200 VRB04KT P6SM VCSH OVC040
     FM112100 35005KT P6SM OVC100=

USA.gov is the U.S. government's official web portal to all federal, state and local government web resources and services.